Time;durP1;ratioP1;P1;durP2;ratioP2;P2;SDS_P1;SDS_P2;PMS_P1;PMS_P2;Temp;Humidity;BMP_temperature;BMP_pressure;BME280_temperature;BME280_humidity;BME280_pressure;Samples;Min_cycle;Max_cycle;Signal;HPM_P1;HPM_P2
2023/09/08 00:02:12;;;;;;;11.87;10.70;;;18.40;99.90;;;;;;4999175;28;20452;-79
2023/09/08 00:05:00;;;;;;;12.10;10.17;;;18.30;99.90;;;;;;4998234;28;20471;-79
2023/09/08 00:07:45;;;;;;;10.77;9.77;;;18.30;99.90;;;;;;5000197;28;20448;-79
2023/09/08 00:10:20;;;;;;;10.60;9.67;;;18.30;99.90;;;;;;4999807;28;20455;-79
2023/09/08 00:12:59;;;;;;;11.57;10.57;;;18.20;99.90;;;;;;5000504;28;20491;-79
2023/09/08 00:15:42;;;;;;;10.70;9.80;;;18.20;99.90;;;;;;4999618;28;20457;-78
2023/09/08 00:18:24;;;;;;;9.70;8.90;;;18.10;99.90;;;;;;5000993;28;20511;-78
2023/09/08 00:21:07;;;;;;;10.93;9.90;;;18.10;99.90;;;;;;5001054;28;20463;-78
2023/09/08 00:23:48;;;;;;;11.27;10.17;;;18.00;99.90;;;;;;5007635;28;20472;-79
2023/09/08 00:26:31;;;;;;;10.97;9.20;;;17.90;99.90;;;;;;5006395;28;20490;-79
2023/09/08 00:29:11;;;;;;;10.03;9.30;;;17.80;99.90;;;;;;5007351;28;20456;-79
2023/09/08 00:34:37;;;;;;;10.57;9.77;;;17.70;99.90;;;;;;5007013;28;20466;-78
2023/09/08 00:37:11;;;;;;;10.57;9.67;;;17.70;99.90;;;;;;5011302;28;20476;-79
2023/09/08 00:39:43;;;;;;;10.80;9.80;;;17.70;99.90;;;;;;5011120;28;20471;-79
2023/09/08 00:42:14;;;;;;;11.00;10.00;;;17.70;99.90;;;;;;5011757;28;20522;-79
2023/09/08 00:44:46;;;;;;;10.87;9.83;;;17.70;99.90;;;;;;5013081;28;20490;-78
2023/09/08 00:47:25;;;;;;;10.90;10.00;;;17.60;99.90;;;;;;5013328;28;20506;-79
2023/09/08 00:49:56;;;;;;;11.20;10.30;;;17.50;99.90;;;;;;5013439;28;21160;-79
2023/09/08 00:52:46;;;;;;;11.90;10.90;;;17.50;99.90;;;;;;5014526;28;20511;-79
2023/09/08 00:58:14;;;;;;;10.50;9.70;;;17.50;99.90;;;;;;5013428;28;20459;-78
2023/09/08 01:01:04;;;;;;;10.97;10.07;;;17.50;99.90;;;;;;5014304;28;20496;-79
2023/09/08 01:03:44;;;;;;;11.30;10.30;;;17.40;99.90;;;;;;5013997;28;20478;-79
2023/09/08 01:06:20;;;;;;;11.17;10.17;;;17.40;99.90;;;;;;5014210;28;20528;-79
2023/09/08 01:08:54;;;;;;;10.60;9.70;;;17.40;99.90;;;;;;5013066;28;20439;-80
2023/09/08 01:11:25;;;;;;;10.93;9.90;;;17.30;99.90;;;;;;5014053;28;20428;-79
2023/09/08 01:16:55;;;;;;;12.27;11.07;;;17.40;99.90;;;;;;5009636;28;20444;-79
2023/09/08 01:19:56;;;;;;;11.27;10.17;;;17.40;99.90;;;;;;5011842;28;20439;-79
2023/09/08 01:22:46;;;;;;;11.27;10.20;;;17.20;99.90;;;;;;5010192;28;20474;-79
2023/09/08 01:25:35;;;;;;;11.03;10.03;;;17.20;99.90;;;;;;5010913;28;20611;-79
2023/09/08 01:28:17;;;;;;;12.23;11.23;;;17.50;99.90;;;;;;5009313;28;20440;-78
2023/09/08 01:30:56;;;;;;;10.90;9.50;;;17.20;99.90;;;;;;5010552;28;20432;-79
2023/09/08 01:33:34;;;;;;;10.93;9.93;;;17.10;99.90;;;;;;5008262;28;20486;-79
2023/09/08 01:36:12;;;;;;;11.03;10.13;;;17.10;99.90;;;;;;5009121;28;20428;-79
2023/09/08 01:38:43;;;;;;;12.13;9.87;;;17.10;99.90;;;;;;5009030;28;20468;-79
2023/09/08 01:41:30;;;;;;;;;;;;;;;;;;;;;
2023/09/08 01:44:07;;;;;;;11.33;10.43;;;16.90;99.90;;;;;;5008143;28;20468;-79
2023/09/08 01:46:51;;;;;;;11.70;10.70;;;16.90;99.90;;;;;;5011416;28;20452;-79
2023/09/08 01:49:26;;;;;;;12.00;10.97;;;16.80;99.90;;;;;;5009800;28;20487;-80
2023/09/08 01:52:01;;;;;;;10.93;9.93;;;16.90;99.90;;;;;;5008771;28;20523;-80
2023/09/08 01:54:39;;;;;;;10.40;9.60;;;16.80;99.90;;;;;;5008722;28;20487;-79
2023/09/08 01:57:18;;;;;;;10.90;10.00;;;16.70;99.90;;;;;;5009964;28;20452;-79
2023/09/08 02:00:03;;;;;;;11.17;10.20;;;16.70;99.90;;;;;;5010236;28;20448;-79
2023/09/08 02:02:48;;;;;;;12.20;11.10;;;16.70;99.90;;;;;;5010559;28;20447;-78
2023/09/08 02:05:25;;;;;;;12.63;11.27;;;16.60;99.90;;;;;;5011717;28;20496;-79
2023/09/08 02:10:52;;;;;;;11.40;9.87;;;16.60;99.90;;;;;;5001647;28;20463;-80
2023/09/08 02:13:36;;;;;;;11.40;10.27;;;16.60;99.90;;;;;;5006132;28;20480;-78
2023/09/08 02:16:23;;;;;;;11.23;10.27;;;16.60;99.90;;;;;;5004054;28;20767;-79
2023/09/08 02:19:09;;;;;;;10.63;9.80;;;16.60;99.90;;;;;;5003878;28;20456;-79
2023/09/08 02:21:47;;;;;;;10.80;10.00;;;16.60;99.90;;;;;;5001862;28;20440;-80
2023/09/08 02:24:30;;;;;;;11.30;10.43;;;16.50;99.90;;;;;;5002020;28;20984;-78
2023/09/08 02:27:06;;;;;;;12.20;11.10;;;16.50;99.90;;;;;;5000865;28;20531;-79
2023/09/08 02:29:41;;;;;;;11.23;10.40;;;16.50;99.90;;;;;;5001691;28;20830;-79
2023/09/08 02:32:16;;;;;;;12.10;11.00;;;16.50;99.90;;;;;;5000960;28;20727;-79
2023/09/08 02:34:55;;;;;;;11.63;10.73;;;16.40;99.90;;;;;;5000866;28;20514;-78
2023/09/08 02:37:34;;;;;;;11.90;10.83;;;16.30;99.90;;;;;;4998917;28;20458;-78
2023/09/08 02:40:13;;;;;;;11.90;10.70;;;16.20;99.90;;;;;;4998961;28;20452;-79
2023/09/08 02:43:00;;;;;;;11.47;10.47;;;16.20;99.90;;;;;;4998267;28;20892;-79
2023/09/08 02:45:59;;;;;;;12.40;11.30;;;16.20;99.90;;;;;;4994656;28;20456;-80
2023/09/08 02:48:31;;;;;;;12.10;10.93;;;16.20;99.90;;;;;;4996054;28;20469;-78
2023/09/08 02:51:03;;;;;;;12.37;11.27;;;16.20;99.90;;;;;;4995098;28;20448;-79
2023/09/08 02:53:51;;;;;;;;;;;;;;;;;;;;;
2023/09/08 02:56:36;;;;;;;11.43;10.57;;;16.20;99.90;;;;;;4995149;28;20812;-79
2023/09/08 02:59:33;;;;;;;12.17;10.83;;;16.10;99.90;;;;;;4995594;28;20491;-78
2023/09/08 03:02:09;;;;;;;11.80;10.83;;;16.10;99.90;;;;;;4996626;28;20444;-79
2023/09/08 03:04:43;;;;;;;12.73;11.63;;;16.10;99.90;;;;;;4996616;28;20988;-80
2023/09/08 03:07:23;;;;;;;12.33;11.23;;;16.00;99.90;;;;;;4995332;28;20813;-79
2023/09/08 03:09:59;;;;;;;13.07;11.70;;;16.00;99.90;;;;;;4995014;28;20460;-79
2023/09/08 03:12:56;;;;;;;13.33;12.07;;;16.00;99.90;;;;;;4994978;28;20448;-78
2023/09/08 03:15:28;;;;;;;12.80;11.80;;;16.00;99.90;;;;;;4988691;28;20468;-80
2023/09/08 03:18:12;;;;;;;13.30;12.10;;;15.90;99.90;;;;;;4995700;28;20475;-79
2023/09/08 03:20:48;;;;;;;12.73;11.73;;;15.90;99.90;;;;;;4995069;28;20462;-78
2023/09/08 03:23:28;;;;;;;11.93;10.93;;;15.90;99.90;;;;;;4993686;28;20799;-79
2023/09/08 03:26:15;;;;;;;12.93;11.60;;;15.80;99.90;;;;;;4994963;28;20458;-78
2023/09/08 03:28:44;;;;;;;12.83;11.57;;;15.80;99.90;;;;;;4994916;28;20448;-78
2023/09/08 03:31:21;;;;;;;13.47;12.37;;;15.80;99.90;;;;;;4994860;28;20475;-78
2023/09/08 03:33:54;;;;;;;13.03;11.70;;;15.80;99.90;;;;;;4995632;28;20480;-78
2023/09/08 03:36:30;;;;;;;12.17;11.17;;;15.80;99.90;;;;;;4996916;28;20413;-79
2023/09/08 03:39:02;;;;;;;12.47;11.47;;;15.80;99.90;;;;;;4998278;28;20435;-78
2023/09/08 03:41:32;;;;;;;12.70;11.60;;;15.70;99.90;;;;;;4998285;28;20503;-77
2023/09/08 03:46:55;;;;;;;13.37;12.00;;;15.70;99.90;;;;;;4998560;28;20436;-78
2023/09/08 03:49:47;;;;;;;13.07;11.90;;;15.70;99.90;;;;;;5003465;28;20447;-79
2023/09/08 03:52:20;;;;;;;14.00;12.70;;;15.60;99.90;;;;;;5003840;28;20510;-78
2023/09/08 03:54:51;;;;;;;15.33;12.87;;;15.60;99.90;;;;;;5002581;28;20583;-79
2023/09/08 03:57:30;;;;;;;14.27;12.50;;;15.60;99.90;;;;;;4998904;28;20463;-78
2023/09/08 04:00:10;;;;;;;13.87;12.67;;;15.50;99.90;;;;;;4996492;28;20463;-79
2023/09/08 04:02:41;;;;;;;15.17;13.67;;;15.50;99.90;;;;;;5008957;28;20506;-78
2023/09/08 04:05:15;;;;;;;14.03;12.73;;;15.50;99.90;;;;;;5017450;28;20463;-78
2023/09/08 04:07:47;;;;;;;13.73;12.53;;;15.50;99.90;;;;;;5020599;28;20794;-79
2023/09/08 04:10:18;;;;;;;14.00;12.67;;;15.50;99.90;;;;;;5025840;28;20432;-79
2023/09/08 04:12:54;;;;;;;13.77;12.47;;;15.50;99.90;;;;;;5023507;28;20483;-78
2023/09/08 04:15:29;;;;;;;14.70;13.23;;;15.40;99.90;;;;;;5024167;28;20479;-78
2023/09/08 04:18:10;;;;;;;14.13;12.93;;;15.40;99.90;;;;;;5025821;28;20475;-79
2023/09/08 04:20:55;;;;;;;14.50;13.03;;;15.40;99.90;;;;;;5025067;28;20458;-80
2023/09/08 04:23:30;;;;;;;15.60;13.67;;;15.40;99.90;;;;;;5023885;28;20463;-79
2023/09/08 04:26:17;;;;;;;14.03;12.67;;;15.20;99.90;;;;;;5023791;28;20455;-79
2023/09/08 04:28:51;;;;;;;15.73;14.23;;;15.20;99.90;;;;;;5021416;28;20474;-79
2023/09/08 04:31:28;;;;;;;15.07;13.67;;;15.20;99.90;;;;;;5019308;28;20459;-78
2023/09/08 04:34:01;;;;;;;14.43;13.13;;;15.20;99.90;;;;;;5019112;28;20537;-79
2023/09/08 04:36:56;;;;;;;14.50;13.10;;;15.30;99.90;;;;;;5019256;28;20448;-78
2023/09/08 04:42:26;;;;;;;15.90;13.77;;;15.20;99.90;;;;;;5016754;28;20439;-80
2023/09/08 04:45:09;;;;;;;14.97;12.93;;;15.20;99.90;;;;;;5020559;28;20483;-79
2023/09/08 04:47:44;;;;;;;15.50;13.50;;;15.20;99.90;;;;;;5022914;28;20538;-79
2023/09/08 04:50:19;;;;;;;15.93;14.37;;;15.20;99.90;;;;;;5020810;28;20451;-79
2023/09/08 04:52:57;;;;;;;14.60;13.30;;;15.20;99.90;;;;;;5019690;28;20450;-80
2023/09/08 04:55:30;;;;;;;14.53;13.10;;;15.30;99.90;;;;;;5019704;28;20487;-79
2023/09/08 04:58:11;;;;;;;14.37;13.07;;;15.30;99.90;;;;;;5020040;28;20479;-80
2023/09/08 05:00:58;;;;;;;15.47;13.80;;;15.40;99.90;;;;;;5020037;28;20463;-78
2023/09/08 05:03:31;;;;;;;14.23;12.93;;;15.40;99.90;;;;;;5020464;28;20487;-78
2023/09/08 05:06:07;;;;;;;15.03;13.30;;;15.40;99.90;;;;;;5020118;28;20458;-80
2023/09/08 05:08:44;;;;;;;14.80;13.20;;;15.50;99.90;;;;;;5023341;28;20450;-78
2023/09/08 05:11:31;;;;;;;14.40;12.90;;;15.50;99.90;;;;;;5029775;28;20470;-79
2023/09/08 05:14:06;;;;;;;14.10;12.70;;;15.50;99.90;;;;;;5030256;28;20478;-79
2023/09/08 05:16:55;;;;;;;13.50;12.20;;;15.50;99.90;;;;;;5030841;28;20481;-81
2023/09/08 05:19:37;;;;;;;13.60;12.30;;;15.50;99.90;;;;;;5030082;28;20460;-82
2023/09/08 05:22:42;;;;;;;14.67;12.60;;;15.50;99.90;;;;;;5028841;28;20538;-78
2023/09/08 05:25:32;;;;;;;13.70;12.33;;;15.60;99.90;;;;;;5027336;28;20525;-79
2023/09/08 05:28:24;;;;;;;13.97;12.50;;;15.60;99.90;;;;;;5028726;28;20460;-80
2023/09/08 05:31:12;;;;;;;19.40;13.30;;;15.60;99.90;;;;;;5029251;28;20455;-79
2023/09/08 05:37:20;;;;;;;14.87;13.43;;;15.70;99.90;;;;;;5027880;28;20439;-79
2023/09/08 05:43:25;;;;;;;15.23;13.93;;;15.70;99.90;;;;;;5020411;28;20450;-80
2023/09/08 05:46:18;;;;;;;13.50;12.30;;;15.70;99.90;;;;;;5022030;28;20539;-77
2023/09/08 05:48:50;;;;;;;14.70;13.27;;;15.90;99.90;;;;;;4943326;29;20451;-79
2023/09/08 05:51:38;;;;;;;14.57;13.17;;;15.90;99.90;;;;;;5014687;28;20455;-79
2023/09/08 05:54:13;;;;;;;15.50;13.83;;;16.00;99.90;;;;;;5018309;28;20487;-79
2023/09/08 05:56:46;;;;;;;15.23;13.73;;;15.90;99.90;;;;;;5020060;28;20814;-79
2023/09/08 05:59:32;;;;;;;15.93;14.60;;;16.20;99.90;;;;;;5019544;28;20550;-80
2023/09/08 06:02:04;;;;;;;14.93;13.37;;;16.30;99.90;;;;;;5020597;28;20521;-79
2023/09/08 06:04:41;;;;;;;14.20;12.80;;;16.40;99.90;;;;;;5025982;28;20472;-79
2023/09/08 06:10:14;;;;;;;17.90;13.57;;;16.60;99.90;;;;;;5019838;28;20447;-80
2023/09/08 06:12:53;;;;;;;13.90;12.40;;;16.70;99.90;;;;;;5029670;28;20518;-81
2023/09/08 06:15:40;;;;;;;15.50;12.87;;;16.80;99.90;;;;;;5029737;28;20479;-80
2023/09/08 06:18:20;;;;;;;13.60;12.40;;;16.70;99.90;;;;;;5033353;28;20470;-79
2023/09/08 06:24:02;;;;;;;12.63;11.33;;;16.90;99.90;;;;;;5029264;28;20629;-80
2023/09/08 06:26:31;;;;;;;14.93;13.53;;;17.10;99.90;;;;;;5031718;28;20443;-79
2023/09/08 06:29:25;;;;;;;21.57;14.27;;;17.20;99.90;;;;;;5029626;28;20447;-80
2023/09/08 06:32:05;;;;;;;13.70;12.20;;;17.10;99.90;;;;;;5026268;28;20661;-81
2023/09/08 06:34:41;;;;;;;12.20;11.10;;;17.20;99.90;;;;;;5031275;28;20483;-81
2023/09/08 06:37:24;;;;;;;14.53;13.00;;;17.20;99.90;;;;;;5032493;28;20425;-79
2023/09/08 06:40:01;;;;;;;13.97;12.50;;;17.40;99.90;;;;;;5032576;28;20485;-79
2023/09/08 06:42:39;;;;;;;12.70;11.60;;;17.40;99.90;;;;;;5032942;28;20459;-80
2023/09/08 06:45:11;;;;;;;14.93;12.87;;;17.40;99.90;;;;;;5031457;28;20491;-79
2023/09/08 06:47:49;;;;;;;15.67;14.17;;;17.50;99.90;;;;;;5031956;28;20478;-80
2023/09/08 06:50:24;;;;;;;15.27;13.87;;;17.60;99.90;;;;;;5032215;28;20444;-79
2023/09/08 06:53:10;;;;;;;17.20;15.50;;;17.60;99.90;;;;;;5032843;28;20453;-79
2023/09/08 06:55:43;;;;;;;16.90;15.27;;;17.70;99.90;;;;;;5033283;28;20478;-80
2023/09/08 06:58:26;;;;;;;16.30;14.70;;;17.70;99.90;;;;;;5031945;28;20518;-81
2023/09/08 07:01:12;;;;;;;13.70;12.47;;;17.80;99.90;;;;;;5031061;28;20936;-78
2023/09/08 07:04:11;;;;;;;15.40;12.20;;;17.90;99.90;;;;;;5010481;28;20504;-80
2023/09/08 07:06:51;;;;;;;13.30;12.03;;;17.90;99.90;;;;;;5008898;28;20459;-79
2023/09/08 07:09:27;;;;;;;14.20;12.23;;;18.10;99.90;;;;;;5012123;28;20540;-78
2023/09/08 07:12:03;;;;;;;14.60;13.20;;;18.00;99.90;;;;;;5009203;28;20475;-80
2023/09/08 07:17:44;;;;;;;16.07;14.13;;;18.30;99.90;;;;;;5006916;28;20444;-79
2023/09/08 07:20:28;;;;;;;14.73;12.87;;;18.40;99.90;;;;;;5003234;28;20448;-79
2023/09/08 07:29:01;;;;;;;15.80;14.20;;;18.60;99.90;;;;;;5002211;28;20977;-81
2023/09/08 07:34:35;;;;;;;14.47;13.27;;;18.90;99.90;;;;;;5000800;28;20492;-82
2023/09/08 07:37:12;;;;;;;16.97;14.00;;;19.00;99.90;;;;;;4999167;28;20456;-80
2023/09/08 07:40:00;;;;;;;15.03;13.53;;;19.20;99.90;;;;;;5000908;28;20466;-80
2023/09/08 07:42:51;;;;;;;26.83;24.20;;;19.30;99.90;;;;;;4999802;28;20456;-79
2023/09/08 07:45:28;;;;;;;15.30;13.80;;;19.50;99.90;;;;;;4996930;28;20495;-79
2023/09/08 07:48:00;;;;;;;15.77;14.10;;;19.60;99.90;;;;;;4994834;28;20467;-79
2023/09/08 07:50:34;;;;;;;14.93;13.57;;;19.70;99.90;;;;;;4995040;28;20552;-81
2023/09/08 07:53:07;;;;;;;15.40;13.27;;;20.00;99.90;;;;;;4994953;28;20534;-79
2023/09/08 07:55:42;;;;;;;14.43;13.00;;;20.10;99.90;;;;;;4995138;28;20480;-79
2023/09/08 07:58:17;;;;;;;14.73;13.37;;;20.30;99.90;;;;;;4995569;28;20475;-79
2023/09/08 08:00:51;;;;;;;14.60;13.20;;;20.30;99.90;;;;;;4995994;28;20464;-80
2023/09/08 08:03:40;;;;;;;14.73;13.37;;;20.50;99.90;;;;;;4995965;28;20548;-79
2023/09/08 08:06:13;;;;;;;18.27;12.63;;;20.60;99.90;;;;;;4996291;28;20452;-80
2023/09/08 08:08:49;;;;;;;12.10;11.00;;;20.90;99.90;;;;;;4995043;28;20460;-80
2023/09/08 08:11:19;;;;;;;13.47;12.20;;;21.10;99.90;;;;;;4995873;28;20455;-80
2023/09/08 08:14:00;;;;;;;13.80;11.80;;;21.20;99.90;;;;;;4995111;28;20560;-80
2023/09/08 08:16:31;;;;;;;13.03;11.93;;;21.50;99.90;;;;;;4994510;28;20491;-80
2023/09/08 08:19:13;;;;;;;11.80;10.70;;;21.60;99.90;;;;;;4995305;28;21068;-80
2023/09/08 08:21:47;;;;;;;12.40;11.30;;;21.90;99.90;;;;;;4994958;28;20456;-80
2023/09/08 08:24:39;;;;;;;12.83;11.73;;;22.10;99.90;;;;;;4995301;28;20478;-79
2023/09/08 08:27:41;;;;;;;12.03;10.93;;;22.40;99.90;;;;;;4996726;28;20476;-79
2023/09/08 08:30:19;;;;;;;12.63;11.53;;;22.60;99.90;;;;;;5018903;28;20447;-83
2023/09/08 08:33:01;;;;;;;11.53;10.53;;;22.80;99.90;;;;;;5017695;28;20453;-82
2023/09/08 08:35:40;;;;;;;14.33;10.17;;;23.00;99.90;;;;;;5018488;28;20599;-79
2023/09/08 08:38:17;;;;;;;12.47;11.27;;;23.10;99.90;;;;;;5017189;28;20457;-81
2023/09/08 08:40:54;;;;;;;12.00;10.83;;;23.40;99.90;;;;;;5016540;28;20443;-82
2023/09/08 08:43:41;;;;;;;12.87;11.03;;;23.40;99.90;;;;;;5019791;28;20475;-81
2023/09/08 08:46:20;;;;;;;13.07;10.07;;;23.70;99.90;;;;;;5021121;28;20502;-80
2023/09/08 08:48:54;;;;;;;12.73;10.50;;;23.90;99.90;;;;;;5011902;28;20466;-79
2023/09/08 08:51:34;;;;;;;11.77;10.40;;;24.20;99.90;;;;;;5025344;28;20451;-78
2023/09/08 08:54:24;;;;;;;10.87;9.73;;;24.30;99.90;;;;;;5026459;28;20497;-79
2023/09/08 08:57:06;;;;;;;10.57;9.67;;;24.70;99.90;;;;;;5025990;28;20483;-80
2023/09/08 08:59:35;;;;;;;12.00;10.40;;;24.90;99.90;;;;;;5026268;28;20939;-80
2023/09/08 09:02:05;;;;;;;11.63;10.60;;;25.20;99.90;;;;;;5025277;28;20448;-80
2023/09/08 09:04:33;;;;;;;11.17;10.07;;;25.30;99.90;;;;;;5023392;28;20471;-81
2023/09/08 09:07:15;;;;;;;10.63;9.73;;;25.40;99.90;;;;;;5023349;28;20454;-80
2023/09/08 09:09:47;;;;;;;9.57;8.87;;;25.50;99.90;;;;;;5024104;28;20506;-80
2023/09/08 09:12:17;;;;;;;10.30;9.40;;;25.70;99.90;;;;;;5023062;28;20519;-81
2023/09/08 09:14:48;;;;;;;10.30;9.30;;;25.70;99.90;;;;;;5022209;28;20467;-80
2023/09/08 09:17:17;;;;;;;11.07;10.00;;;26.20;99.90;;;;;;5023307;28;20432;-79
2023/09/08 09:19:53;;;;;;;11.40;10.20;;;26.50;99.90;;;;;;5023160;28;20451;-80
2023/09/08 09:22:23;;;;;;;10.57;9.67;;;26.40;99.90;;;;;;5022695;28;20966;-80
2023/09/08 09:24:59;;;;;;;11.30;9.97;;;26.50;99.90;;;;;;5024201;28;20527;-80
2023/09/08 09:27:37;;;;;;;10.30;9.40;;;26.70;99.90;;;;;;5018310;28;20435;-79
2023/09/08 09:30:14;;;;;;;9.70;8.90;;;27.00;99.90;;;;;;5019815;28;20816;-80
2023/09/08 09:32:49;;;;;;;9.60;8.70;;;27.10;99.90;;;;;;5020145;28;20462;-81
2023/09/08 09:35:24;;;;;;;9.37;8.53;;;27.10;99.90;;;;;;5023657;28;20482;-79
2023/09/08 09:37:56;;;;;;;9.17;8.47;;;27.40;99.90;;;;;;5028996;28;20841;-79
2023/09/08 09:40:31;;;;;;;10.10;9.30;;;27.70;99.90;;;;;;5028912;28;20447;-81
2023/09/08 09:43:11;;;;;;;9.37;8.47;;;27.50;99.90;;;;;;5028416;28;20458;-79
2023/09/08 09:45:42;;;;;;;9.00;8.13;;;27.70;99.90;;;;;;5028221;28;20455;-80
2023/09/08 09:48:17;;;;;;;9.37;8.67;;;27.70;99.90;;;;;;5029121;28;20436;-81
2023/09/08 09:50:49;;;;;;;8.80;8.10;;;27.80;99.90;;;;;;5027652;28;20451;-79
2023/09/08 09:53:24;;;;;;;8.80;7.90;;;28.40;99.90;;;;;;5025541;28;20466;-80
2023/09/08 09:55:56;;;;;;;8.53;7.80;;;28.60;99.90;;;;;;5025863;28;20501;-79
2023/09/08 09:58:32;;;;;;;8.50;7.73;;;28.90;99.90;;;;;;5021948;28;20546;-82
2023/09/08 10:01:05;;;;;;;8.37;7.67;;;29.20;99.90;;;;;;5022875;28;20874;-81
2023/09/08 10:03:39;;;;;;;8.40;7.70;;;29.00;99.90;;;;;;5004640;28;20532;-81
2023/09/08 10:06:11;;;;;;;7.80;7.10;;;29.20;99.90;;;;;;5003146;28;20453;-82
2023/09/08 10:08:43;;;;;;;8.10;7.50;;;29.60;99.90;;;;;;5001014;28;20945;-81
2023/09/08 10:11:21;;;;;;;8.13;7.47;;;29.80;99.90;;;;;;5001371;28;20518;-82
2023/09/08 10:14:03;;;;;;;7.70;7.10;;;30.00;99.90;;;;;;5004710;28;20500;-83
2023/09/08 10:16:52;;;;;;;7.87;7.20;;;30.20;99.90;;;;;;5002998;28;20896;-81
2023/09/08 10:19:23;;;;;;;8.13;7.47;;;30.40;99.90;;;;;;5008441;28;20480;-82
2023/09/08 10:21:55;;;;;;;8.53;7.70;;;30.10;99.90;;;;;;5010883;28;20468;-79
2023/09/08 10:24:38;;;;;;;7.67;6.97;;;30.30;99.90;;;;;;5002851;28;20468;-81
2023/09/08 10:27:20;;;;;;;7.37;6.67;;;30.40;99.90;;;;;;5004056;28;20480;-83
2023/09/08 10:29:55;;;;;;;7.60;6.83;;;30.50;99.90;;;;;;5002553;28;20456;-80
2023/09/08 10:32:29;;;;;;;7.97;7.03;;;30.90;99.90;;;;;;5003827;28;20524;-82
2023/09/08 10:35:08;;;;;;;8.63;6.50;;;31.00;99.90;;;;;;5001668;28;20475;-80
2023/09/08 10:37:50;;;;;;;7.50;7.00;;;31.00;99.90;;;;;;5001229;28;20479;-80
2023/09/08 10:40:38;;;;;;;8.53;7.37;;;31.20;99.90;;;;;;5002625;28;20454;-83
2023/09/08 10:43:22;;;;;;;8.53;7.40;;;30.90;99.90;;;;;;5003572;28;21027;-82
2023/09/08 10:46:03;;;;;;;7.70;7.20;;;31.40;99.90;;;;;;5001857;28;20468;-82
2023/09/08 10:49:09;;;;;;;;;;;;;;;;;;;;;
2023/09/08 10:52:04;;;;;;;7.70;7.10;;;32.10;99.90;;;;;;5007264;28;20492;-82
2023/09/08 10:54:54;;;;;;;9.50;7.10;;;32.00;99.90;;;;;;5008175;28;20544;-82
2023/09/08 10:57:31;;;;;;;7.97;7.47;;;31.50;99.90;;;;;;5007602;28;20506;-80
2023/09/08 11:00:11;;;;;;;7.23;6.73;;;31.80;99.90;;;;;;5006771;28;20471;-82
2023/09/08 11:03:06;;;;;;;6.90;6.40;;;32.10;99.90;;;;;;5006318;28;20537;-82
2023/09/08 11:05:51;;;;;;;7.47;6.67;;;31.60;99.90;;;;;;5002564;28;20449;-80
2023/09/08 11:09:09;;;;;;;7.50;6.90;;;31.20;99.90;;;;;;5000769;28;20451;-81
2023/09/08 11:15:15;;;;;;;8.00;7.40;;;32.50;99.90;;;;;;4946585;28;20444;-80
2023/09/08 11:17:56;;;;;;;7.27;6.67;;;32.90;99.90;;;;;;4992226;28;20433;-81
2023/09/08 11:20:44;;;;;;;7.60;6.90;;;33.20;99.90;;;;;;4995974;28;20502;-81
2023/09/08 11:23:43;;;;;;;7.70;7.10;;;33.50;99.90;;;;;;4996305;28;20448;-81
2023/09/08 11:26:17;;;;;;;7.20;6.70;;;33.40;99.90;;;;;;4970985;28;20445;-84
2023/09/08 11:29:23;;;;;;;7.97;7.30;;;33.30;99.90;;;;;;5002662;28;20436;-81
2023/09/08 11:35:31;;;;;;;9.80;8.90;;;32.90;99.90;;;;;;4989041;28;20560;-81
2023/09/08 11:38:16;;;;;;;8.20;7.57;;;33.30;99.90;;;;;;4999914;28;20455;-81
2023/09/08 11:41:07;;;;;;;7.27;6.57;;;33.50;99.90;;;;;;5000795;28;20474;-80
2023/09/08 11:44:13;;;;;;;7.83;7.33;;;33.50;99.10;;;;;;4999914;28;20464;-82
2023/09/08 11:47:09;;;;;;;;;;;;;;;;;;;;;
2023/09/08 11:49:55;;;;;;;8.60;7.40;;;33.60;98.90;;;;;;4999571;28;20447;-82
2023/09/08 11:52:31;;;;;;;9.10;8.30;;;33.30;99.00;;;;;;5000590;28;20444;-82
2023/09/08 11:55:03;;;;;;;7.40;6.90;;;33.10;99.10;;;;;;5000644;28;20550;-81
2023/09/08 11:58:00;;;;;;;7.70;7.10;;;32.40;99.50;;;;;;5002625;28;20481;-81
2023/09/08 12:00:49;;;;;;;;;;;;;;;;;;;;;
2023/09/08 12:04:04;;;;;;;7.93;7.23;;;33.30;98.50;;;;;;5003588;28;20441;-81
2023/09/08 12:06:33;;;;;;;7.40;6.90;;;34.00;97.60;;;;;;5004682;28;20519;-81
2023/09/08 12:09:07;;;;;;;7.10;6.60;;;34.40;96.00;;;;;;5003471;28;20465;-82
2023/09/08 12:11:41;;;;;;;7.47;6.97;;;34.40;96.10;;;;;;5004069;28;20452;-83
2023/09/08 12:14:19;;;;;;;7.10;6.60;;;33.70;96.70;;;;;;5006018;28;20460;-82
2023/09/08 12:16:52;;;;;;;7.27;6.77;;;33.40;96.90;;;;;;5006233;28;20468;-79
2023/09/08 12:19:57;;;;;;;6.80;6.40;;;33.20;96.70;;;;;;5005831;28;20922;-80
2023/09/08 12:22:35;;;;;;;6.87;6.20;;;34.50;95.10;;;;;;5007834;28;20437;-82
2023/09/08 12:25:15;;;;;;;7.70;6.90;;;34.90;94.20;;;;;;5002937;28;20559;-82
2023/09/08 12:27:44;;;;;;;7.80;7.10;;;35.20;93.40;;;;;;5002303;28;20444;-80
2023/09/08 12:30:19;;;;;;;7.47;6.97;;;35.20;93.50;;;;;;5003129;28;20455;-81
2023/09/08 12:32:50;;;;;;;7.20;6.70;;;34.30;94.10;;;;;;5003092;28;20448;-80
2023/09/08 12:35:28;;;;;;;6.77;6.33;;;35.10;93.00;;;;;;5003419;28;20464;-81
2023/09/08 12:38:01;;;;;;;7.60;7.00;;;35.10;93.30;;;;;;5001874;28;20479;-80
2023/09/08 12:40:34;;;;;;;7.30;6.80;;;35.30;92.20;;;;;;4998328;28;20448;-80
2023/09/08 12:43:09;;;;;;;7.60;7.10;;;34.80;92.40;;;;;;4998410;28;20417;-81
2023/09/08 12:45:46;;;;;;;7.60;6.93;;;35.10;92.30;;;;;;4999673;28;20976;-79
2023/09/08 12:48:21;;;;;;;7.67;7.13;;;35.50;91.20;;;;;;5000413;28;20456;-80
2023/09/08 12:50:53;;;;;;;6.77;6.00;;;35.50;91.10;;;;;;4999542;28;20468;-79
2023/09/08 12:53:23;;;;;;;6.10;5.70;;;35.60;90.80;;;;;;5002665;28;20472;-82
2023/09/08 12:55:58;;;;;;;7.50;6.90;;;35.70;90.80;;;;;;5001224;28;20445;-80
2023/09/08 12:58:27;;;;;;;7.00;6.40;;;35.60;90.40;;;;;;5001853;28;20472;-82
2023/09/08 13:01:00;;;;;;;7.80;7.30;;;35.50;90.30;;;;;;5000997;28;20498;-82
2023/09/08 13:03:36;;;;;;;7.33;6.73;;;35.40;89.30;;;;;;4999569;28;20472;-81
2023/09/08 13:06:07;;;;;;;7.20;6.70;;;35.40;90.00;;;;;;4997683;28;20458;-81
2023/09/08 13:08:40;;;;;;;7.47;6.97;;;34.20;90.90;;;;;;5000151;28;20456;-82
2023/09/08 13:11:14;;;;;;;6.63;6.13;;;34.50;90.80;;;;;;4998785;28;20444;-83
2023/09/08 13:13:42;;;;;;;7.23;6.73;;;34.50;90.50;;;;;;4996622;28;20526;-83
2023/09/08 13:16:11;;;;;;;7.20;6.70;;;;;;;;;;4995756;28;20457;-81
2023/09/08 13:19:00;;;;;;;6.73;6.33;;;34.60;89.70;;;;;;4995472;28;20457;-82
2023/09/08 13:21:38;;;;;;;6.70;6.20;;;34.30;90.00;;;;;;4994604;28;20460;-84
2023/09/08 13:24:18;;;;;;;7.20;6.70;;;34.70;90.20;;;;;;4995143;28;20476;-81
2023/09/08 13:26:58;;;;;;;7.07;6.50;;;34.20;89.70;;;;;;4996937;28;20940;-83
2023/09/08 13:29:50;;;;;;;7.10;6.50;;;34.60;90.00;;;;;;4996923;28;20975;-80
2023/09/08 13:32:40;;;;;;;6.37;5.97;;;34.80;90.20;;;;;;4998379;28;20452;-80
2023/09/08 13:35:14;;;;;;;6.60;6.13;;;;;;;;;;4997632;28;20476;-79
2023/09/08 13:37:46;;;;;;;6.77;6.20;;;35.70;85.60;;;;;;4997788;28;20547;-81
2023/09/08 13:43:26;;;;;;;6.10;5.70;;;35.70;86.10;;;;;;4996629;28;20455;-82
2023/09/08 13:46:12;;;;;;;6.57;6.07;;;35.70;85.20;;;;;;4992888;28;20460;-79
2023/09/08 13:48:59;;;;;;;6.80;6.40;;;35.80;83.80;;;;;;5002704;28;20456;-82
2023/09/08 13:52:01;;;;;;;6.30;5.80;;;36.00;83.60;;;;;;5001852;28;20531;-83
2023/09/08 13:54:39;;;;;;;7.23;6.07;;;36.10;84.20;;;;;;4992696;28;20472;-80
2023/09/08 13:57:11;;;;;;;6.70;5.97;;;35.60;83.00;;;;;;5003492;28;20480;-81
2023/09/08 13:59:47;;;;;;;6.50;6.00;;;36.00;82.10;;;;;;5004886;28;20523;-82
2023/09/08 14:02:15;;;;;;;6.50;5.90;;;36.00;82.30;;;;;;5004566;28;20460;-80
2023/09/08 14:04:53;;;;;;;6.43;5.93;;;35.00;82.60;;;;;;4996650;28;20868;-80
2023/09/08 14:07:23;;;;;;;6.00;5.60;;;35.00;83.10;;;;;;4996060;28;20539;-81
2023/09/08 14:09:57;;;;;;;6.63;5.97;;;35.20;82.50;;;;;;4995166;28;20525;-79
2023/09/08 14:12:26;;;;;;;6.37;5.87;;;35.40;81.90;;;;;;4996399;28;20451;-80
2023/09/08 14:14:59;;;;;;;6.53;6.03;;;35.70;81.60;;;;;;5000767;28;20472;-79
2023/09/08 14:17:33;;;;;;;6.17;5.63;;;35.80;80.70;;;;;;5007364;28;20476;-80
2023/09/08 14:20:08;;;;;;;6.70;6.20;;;35.40;80.30;;;;;;5006820;28;20464;-79
2023/09/08 14:22:45;;;;;;;6.53;6.03;;;35.50;79.70;;;;;;5005447;28;20483;-80
2023/09/08 14:25:19;;;;;;;6.70;6.20;;;35.70;80.10;;;;;;5006716;28;20538;-80
2023/09/08 14:27:57;;;;;;;6.77;6.20;;;35.10;81.30;;;;;;5008186;28;20413;-80
2023/09/08 14:30:41;;;;;;;6.63;6.23;;;35.20;80.50;;;;;;5011745;28;20520;-80
2023/09/08 14:33:12;;;;;;;6.37;5.97;;;35.20;80.50;;;;;;5007359;28;20493;-81
2023/09/08 14:35:51;;;;;;;6.30;5.80;;;35.50;79.90;;;;;;5006582;28;20458;-79